createdAt,value
2019-01-21T00:02:13.976Z,17.00
2019-01-21T00:04:46.572Z,23.10
2019-01-21T00:07:17.946Z,17.50
2019-01-21T00:09:49.212Z,17.33
2019-01-21T00:12:20.279Z,18.93
2019-01-21T00:14:51.520Z,18.23
2019-01-21T00:17:22.749Z,17.27
2019-01-21T00:19:54.016Z,17.67
2019-01-21T00:22:25.079Z,18.97
2019-01-21T00:24:56.417Z,20.30
2019-01-21T00:27:27.644Z,16.30
2019-01-21T00:29:59.215Z,18.97
2019-01-21T00:32:30.279Z,21.73
2019-01-21T00:35:01.615Z,16.40
2019-01-21T00:37:33.060Z,15.37
2019-01-21T00:40:05.256Z,18.10
2019-01-21T00:42:36.767Z,23.60
2019-01-21T00:45:08.348Z,17.20
2019-01-21T00:47:39.675Z,18.30
2019-01-21T00:50:11.168Z,15.87
2019-01-21T00:52:42.547Z,27.80
2019-01-21T00:55:14.286Z,17.83
2019-01-21T00:57:45.649Z,15.00
2019-01-21T01:00:19.798Z,19.40
2019-01-21T01:02:51.551Z,22.23
2019-01-21T01:05:23.489Z,18.23
2019-01-21T01:07:55.150Z,21.57
2019-01-21T01:10:26.215Z,17.90
2019-01-21T01:12:57.528Z,16.47
2019-01-21T01:15:28.887Z,19.37
2019-01-21T01:18:00.191Z,17.30
2019-01-21T01:20:31.500Z,20.30
2019-01-21T01:23:02.899Z,18.43
2019-01-21T01:25:33.903Z,17.93
2019-01-21T01:28:05.291Z,19.60
2019-01-21T01:30:36.691Z,20.50
2019-01-21T01:33:08.015Z,25.57
2019-01-21T01:35:39.335Z,23.50
2019-01-21T01:38:10.659Z,25.23
2019-01-21T01:40:42.067Z,21.60
2019-01-21T01:43:13.380Z,20.17
2019-01-21T01:45:44.628Z,22.00
2019-01-21T01:48:16.008Z,21.60
2019-01-21T01:50:47.428Z,21.40
2019-01-21T01:53:18.819Z,23.53
2019-01-21T01:55:52.287Z,19.23
2019-01-21T01:58:24.298Z,17.57
2019-01-21T02:00:56.760Z,19.97
2019-01-21T02:03:28.379Z,19.37
2019-01-21T02:06:00.265Z,17.17
2019-01-21T02:08:36.972Z,21.87
2019-01-21T02:11:08.776Z,20.93
2019-01-21T02:13:39.971Z,20.93
2019-01-21T02:16:11.972Z,20.03
2019-01-21T02:18:42.987Z,20.03
2019-01-21T02:21:14.399Z,19.93
2019-01-21T02:23:48.540Z,23.20
2019-01-21T02:26:22.415Z,20.77
2019-01-21T02:29:08.757Z,22.17
2019-01-21T02:32:24.132Z,23.80
2019-01-21T02:35:25.968Z,25.93
2019-01-21T02:38:34.754Z,19.27
2019-01-21T02:41:36.851Z,21.13
2019-01-21T02:44:32.211Z,18.53
2019-01-21T02:47:24.603Z,14.93
2019-01-21T02:50:26.416Z,19.47
2019-01-21T02:53:13.647Z,17.70
2019-01-21T02:56:28.147Z,21.53
2019-01-21T02:59:23.575Z,20.27
2019-01-21T03:02:55.369Z,18.23
2019-01-21T03:06:07.107Z,17.13
2019-01-21T03:09:06.924Z,17.73
2019-01-21T03:12:16.890Z,20.10
2019-01-21T03:15:33.172Z,19.87
2019-01-21T03:18:29.048Z,20.07
2019-01-21T03:21:28.416Z,25.47
2019-01-21T03:24:29.253Z,21.53
2019-01-21T03:27:28.881Z,22.60
2019-01-21T03:30:35.189Z,22.93
2019-01-21T03:33:43.857Z,22.77
2019-01-21T03:36:42.247Z,24.20
2019-01-21T03:40:04.146Z,21.97
2019-01-21T03:42:55.144Z,19.70
2019-01-21T03:46:15.460Z,22.80
2019-01-21T03:49:01.861Z,22.27
2019-01-21T03:52:13.267Z,26.80
2019-01-21T03:54:52.231Z,24.37
2019-01-21T03:57:52.008Z,24.93
2019-01-21T04:00:35.825Z,22.20
2019-01-21T04:04:09.525Z,17.87
2019-01-21T04:06:55.104Z,27.30
2019-01-21T04:10:17.007Z,24.90
2019-01-21T04:13:32.028Z,17.83
2019-01-21T04:16:36.319Z,22.00
2019-01-21T04:19:44.247Z,23.67
2019-01-21T04:22:45.004Z,21.60
2019-01-21T04:25:54.704Z,23.50
2019-01-21T04:28:37.511Z,23.33
2019-01-21T04:31:47.209Z,19.63
2019-01-21T04:34:36.663Z,24.17
2019-01-21T04:37:53.265Z,18.07
2019-01-21T04:41:03.019Z,23.37
2019-01-21T04:44:25.053Z,28.07
2019-01-21T04:47:44.868Z,21.13
2019-01-21T04:50:29.042Z,19.93
2019-01-21T04:53:39.396Z,22.23
2019-01-21T04:56:44.761Z,21.23
2019-01-21T04:59:29.897Z,21.27
2019-01-21T05:02:26.423Z,19.53
2019-01-21T05:05:21.129Z,20.80
2019-01-21T05:08:26.011Z,21.60
2019-01-21T05:11:26.195Z,22.53
2019-01-21T05:14:37.908Z,19.47
2019-01-21T05:17:53.561Z,21.90
2019-01-21T05:21:11.617Z,20.67
2019-01-21T05:24:21.860Z,22.93
2019-01-21T05:27:28.966Z,22.83
2019-01-21T05:30:33.915Z,24.67
2019-01-21T05:33:32.933Z,26.23
2019-01-21T05:36:32.701Z,25.53
2019-01-21T05:39:32.379Z,22.17
2019-01-21T05:42:33.798Z,26.93
2019-01-21T05:45:33.509Z,25.03
2019-01-21T05:48:38.279Z,29.47
2019-01-21T05:51:53.182Z,22.50
2019-01-21T05:54:59.608Z,31.33
2019-01-21T05:57:56.363Z,25.77
2019-01-21T06:00:56.515Z,27.20
2019-01-21T06:03:47.266Z,26.60
2019-01-21T06:06:52.809Z,23.80
2019-01-21T06:10:04.836Z,25.03
2019-01-21T06:13:29.332Z,23.43
2019-01-21T06:16:48.392Z,22.53
2019-01-21T06:20:10.350Z,24.33
2019-01-21T06:23:13.685Z,24.30
2019-01-21T06:26:01.653Z,27.10
2019-01-21T06:29:08.219Z,26.67
2019-01-21T06:32:26.536Z,20.07
2019-01-21T06:35:51.412Z,26.53
2019-01-21T06:38:48.086Z,25.00
2019-01-21T06:41:43.443Z,22.17
2019-01-21T06:45:01.697Z,25.93
2019-01-21T06:48:32.421Z,27.97
2019-01-21T06:51:43.423Z,26.67
2019-01-21T06:54:50.080Z,26.47
2019-01-21T06:57:52.359Z,22.37
2019-01-21T07:01:09.263Z,22.97
2019-01-21T07:04:12.196Z,28.53
2019-01-21T07:07:27.444Z,28.17
2019-01-21T07:10:23.087Z,22.67
2019-01-21T07:13:53.759Z,26.70
2019-01-21T07:17:08.739Z,23.47
2019-01-21T07:20:11.061Z,25.03
2019-01-21T07:23:22.503Z,26.37
2019-01-21T07:26:11.532Z,30.03
2019-01-21T07:28:57.611Z,22.93
2019-01-21T07:31:46.107Z,26.53
2019-01-21T07:35:07.719Z,33.10
2019-01-21T07:38:23.120Z,29.33
2019-01-21T07:41:30.464Z,29.17
2019-01-21T07:44:27.775Z,27.37
2019-01-21T07:47:33.443Z,24.43
2019-01-21T07:50:26.565Z,29.00
2019-01-21T07:53:57.271Z,33.03
2019-01-21T07:57:08.635Z,27.30
2019-01-21T08:00:12.515Z,27.77
2019-01-21T08:03:20.043Z,26.30
2019-01-21T08:06:23.969Z,27.97
2019-01-21T08:09:25.776Z,25.30
2019-01-21T08:12:30.703Z,35.97
2019-01-21T08:15:26.281Z,24.63
2019-01-21T08:18:53.947Z,24.20
2019-01-21T08:21:33.445Z,26.97
2019-01-21T08:24:43.055Z,27.40
2019-01-21T08:27:49.846Z,26.27
2019-01-21T08:31:01.721Z,23.70
2019-01-21T08:34:01.376Z,24.93
2019-01-21T08:37:11.583Z,24.43
2019-01-21T08:40:12.620Z,27.07
2019-01-21T08:43:16.956Z,27.17
2019-01-21T08:46:02.783Z,27.53
2019-01-21T08:49:11.435Z,30.03
2019-01-21T08:51:55.609Z,23.53
2019-01-21T08:54:58.823Z,28.70
2019-01-21T08:58:13.047Z,24.80
2019-01-21T09:01:14.731Z,28.77
2019-01-21T09:05:09.747Z,28.70
2019-01-21T09:08:17.022Z,31.43
2019-01-21T09:10:55.885Z,27.70
2019-01-21T09:13:49.671Z,31.83
2019-01-21T09:17:02.880Z,31.87
2019-01-21T09:20:03.482Z,29.87
2019-01-21T09:22:51.172Z,28.37
2019-01-21T09:25:41.532Z,34.47
2019-01-21T09:28:46.079Z,36.07
2019-01-21T09:31:54.755Z,30.00
2019-01-21T09:34:57.139Z,30.57
2019-01-21T09:38:01.580Z,27.10
2019-01-21T09:41:17.315Z,32.17
2019-01-21T09:44:00.370Z,34.57
2019-01-21T09:46:56.008Z,33.87
2019-01-21T09:49:25.667Z,37.97
2019-01-21T09:52:07.911Z,37.67
2019-01-21T09:54:40.611Z,37.83
2019-01-21T09:57:20.588Z,34.83
2019-01-21T09:59:54.100Z,36.17
2019-01-21T10:02:37.332Z,38.13
2019-01-21T10:05:15.036Z,37.77
2019-01-21T10:08:10.763Z,36.43
2019-01-21T10:11:12.947Z,40.20
2019-01-21T10:14:16.131Z,38.40
2019-01-21T10:17:26.267Z,43.27
2019-01-21T10:20:28.355Z,36.47
2019-01-21T10:23:32.029Z,39.27
2019-01-21T10:26:33.410Z,40.33
2019-01-21T10:29:27.328Z,40.00
2019-01-21T10:32:33.099Z,36.40
2019-01-21T10:35:24.575Z,42.73
2019-01-21T10:38:49.335Z,38.47
2019-01-21T10:41:27.831Z,39.60
2019-01-21T10:44:30.877Z,36.37
2019-01-21T10:47:30.527Z,37.63
2019-01-21T10:50:34.612Z,36.97
2019-01-21T10:53:42.872Z,40.17
2019-01-21T10:56:41.531Z,38.60
2019-01-21T10:59:34.079Z,41.70
2019-01-21T11:03:13.815Z,34.77
2019-01-21T11:05:59.452Z,34.20
2019-01-21T11:08:41.548Z,39.23
2019-01-21T11:11:40.199Z,36.47
2019-01-21T11:14:44.707Z,37.67
2019-01-21T11:17:30.735Z,38.27
2019-01-21T11:20:54.935Z,37.87
2019-01-21T11:24:02.309Z,32.90
2019-01-21T11:26:59.547Z,33.83
2019-01-21T11:29:58.092Z,32.30
2019-01-21T11:32:57.544Z,35.20
2019-01-21T11:35:51.991Z,35.30
2019-01-21T11:38:57.396Z,35.30
2019-01-21T11:41:46.468Z,30.43
2019-01-21T11:44:59.323Z,35.37
2019-01-21T11:47:55.143Z,30.73
2019-01-21T11:50:41.190Z,30.57
2019-01-21T11:53:41.876Z,29.97
2019-01-21T11:56:32.511Z,29.80
2019-01-21T11:59:44.344Z,28.90
2019-01-21T12:03:04.756Z,30.37
2019-01-21T12:06:01.028Z,32.80
2019-01-21T12:09:00.602Z,27.77
2019-01-21T12:12:38.055Z,28.50
2019-01-21T12:15:50.415Z,30.07
2019-01-21T12:18:46.063Z,28.50
2019-01-21T12:21:44.955Z,28.87
2019-01-21T12:24:26.176Z,28.10
2019-01-21T12:27:38.930Z,27.13
2019-01-21T12:30:37.123Z,27.20
2019-01-21T12:33:48.344Z,26.30
2019-01-21T12:36:51.886Z,29.77
2019-01-21T12:39:51.228Z,28.13
2019-01-21T12:42:47.552Z,29.90
2019-01-21T12:45:56.022Z,23.50
2019-01-21T12:49:18.248Z,24.13
2019-01-21T12:52:10.628Z,25.60
2019-01-21T12:55:01.880Z,25.63
2019-01-21T12:58:00.450Z,25.00
2019-01-21T13:00:55.057Z,26.40
2019-01-21T13:04:02.300Z,23.63
2019-01-21T13:07:13.937Z,26.07
2019-01-21T13:10:26.256Z,24.40
2019-01-21T13:13:21.458Z,25.83
2019-01-21T13:16:39.728Z,22.30
2019-01-21T13:19:45.917Z,26.60
2019-01-21T13:22:43.217Z,25.30
2019-01-21T13:26:09.554Z,24.67
2019-01-21T13:29:13.892Z,21.57
2019-01-21T13:32:41.465Z,24.40
2019-01-21T13:36:00.137Z,21.20
2019-01-21T13:39:27.765Z,22.80
2019-01-21T13:42:13.716Z,22.47
2019-01-21T13:45:07.172Z,21.33
2019-01-21T13:48:14.131Z,25.17
2019-01-21T13:51:13.492Z,20.50
2019-01-21T13:54:36.490Z,25.30
2019-01-21T13:58:05.888Z,22.33
2019-01-21T14:01:14.224Z,26.83
2019-01-21T14:04:09.044Z,23.37
2019-01-21T14:07:11.325Z,24.27
2019-01-21T14:09:57.112Z,23.87
2019-01-21T14:12:47.355Z,22.43
2019-01-21T14:16:09.195Z,24.53
2019-01-21T14:19:26.284Z,23.87
2019-01-21T14:22:47.697Z,22.03
2019-01-21T14:25:50.116Z,21.00
2019-01-21T14:28:40.419Z,25.53
2019-01-21T14:31:36.202Z,24.37
2019-01-21T14:34:50.477Z,21.63
2019-01-21T14:37:37.347Z,21.47
2019-01-21T14:40:35.016Z,21.77
2019-01-21T14:43:53.348Z,21.87
2019-01-21T14:47:05.679Z,23.83
2019-01-21T14:49:54.725Z,24.97
2019-01-21T14:52:49.827Z,23.30
2019-01-21T14:55:43.736Z,23.83
2019-01-21T14:58:56.131Z,23.97
2019-01-21T15:01:59.113Z,23.13
2019-01-21T15:05:07.626Z,23.53
2019-01-21T15:08:03.248Z,26.63
2019-01-21T15:10:47.507Z,22.87
2019-01-21T15:14:15.331Z,26.07
2019-01-21T15:17:17.876Z,25.30
2019-01-21T15:20:05.771Z,25.33
2019-01-21T15:23:23.232Z,30.83
2019-01-21T15:26:30.017Z,24.90
2019-01-21T15:29:47.740Z,25.67
2019-01-21T15:32:31.512Z,26.13
2019-01-21T15:35:43.245Z,24.23
2019-01-21T15:39:02.073Z,26.13
2019-01-21T15:42:06.047Z,26.57
2019-01-21T15:45:16.750Z,25.13
2019-01-21T15:48:24.835Z,25.47
2019-01-21T15:51:30.901Z,22.63
2019-01-21T15:54:41.599Z,28.47
2019-01-21T15:57:37.481Z,25.27
2019-01-21T16:00:39.654Z,22.80
2019-01-21T16:03:37.460Z,27.53
2019-01-21T16:06:35.807Z,28.07
2019-01-21T16:09:23.667Z,27.03
2019-01-21T16:12:13.131Z,27.60
2019-01-21T16:14:52.160Z,28.27
2019-01-21T16:17:47.296Z,24.97
2019-01-21T16:20:25.933Z,26.07
2019-01-21T16:23:41.590Z,28.43
2019-01-21T16:26:33.341Z,28.37
2019-01-21T16:29:21.749Z,29.47
2019-01-21T16:32:05.875Z,27.43
2019-01-21T16:35:21.771Z,33.50
2019-01-21T16:38:33.983Z,34.63
2019-01-21T16:41:23.924Z,32.63
2019-01-21T16:43:55.224Z,31.33
2019-01-21T16:46:26.596Z,28.33
2019-01-21T16:48:57.971Z,34.73
2019-01-21T16:51:29.047Z,30.33
2019-01-21T16:54:00.558Z,28.97
2019-01-21T16:56:32.166Z,31.20
2019-01-21T16:59:03.543Z,32.40
2019-01-21T17:01:34.800Z,34.07
2019-01-21T17:04:06.168Z,30.70
2019-01-21T17:06:37.560Z,29.97
2019-01-21T17:09:10.780Z,30.17
2019-01-21T17:11:42.031Z,33.43
2019-01-21T17:14:13.263Z,29.07
2019-01-21T17:16:44.596Z,30.40
2019-01-21T17:19:15.722Z,31.17
2019-01-21T17:21:47.037Z,28.07
2019-01-21T17:24:18.248Z,26.80
2019-01-21T17:26:49.757Z,30.73
2019-01-21T17:29:21.076Z,29.20
2019-01-21T17:31:53.949Z,35.07
2019-01-21T17:34:24.944Z,29.83
2019-01-21T17:36:56.309Z,28.00
2019-01-21T17:39:27.715Z,33.63
2019-01-21T17:41:59.068Z,28.87
2019-01-21T17:44:30.293Z,38.20
2019-01-21T17:47:01.776Z,31.80
2019-01-21T17:49:32.747Z,26.33
2019-01-21T17:52:04.227Z,29.63
2019-01-21T17:54:36.723Z,27.23
2019-01-21T17:57:07.933Z,29.27
2019-01-21T17:59:39.230Z,30.57
2019-01-21T18:02:10.603Z,27.33
2019-01-21T18:04:42.152Z,33.13
2019-01-21T18:07:13.547Z,29.77
2019-01-21T18:09:44.652Z,30.10
2019-01-21T18:12:16.207Z,25.83
2019-01-21T18:14:47.708Z,32.93
2019-01-21T18:17:19.222Z,26.47
2019-01-21T18:19:51.363Z,27.27
2019-01-21T18:22:22.975Z,30.13
2019-01-21T18:24:56.412Z,28.63
2019-01-21T18:27:28.039Z,23.60
2019-01-21T18:29:59.396Z,27.10
2019-01-21T18:32:31.552Z,29.17
2019-01-21T18:35:02.972Z,28.23
2019-01-21T18:37:34.511Z,32.63
2019-01-21T18:40:07.759Z,28.97
2019-01-21T18:42:39.115Z,28.40
2019-01-21T18:45:11.397Z,26.93
2019-01-21T18:47:42.579Z,26.83
2019-01-21T18:50:14.147Z,27.07
2019-01-21T18:52:45.359Z,28.77
2019-01-21T18:55:17.395Z,28.27
2019-01-21T18:57:48.983Z,25.63
2019-01-21T19:00:22.631Z,28.27
2019-01-21T19:02:54.059Z,28.40
2019-01-21T19:05:25.388Z,25.57
2019-01-21T19:07:56.777Z,24.40
2019-01-21T19:10:27.983Z,31.83
2019-01-21T19:12:59.795Z,26.17
2019-01-21T19:15:32.439Z,27.03
2019-01-21T19:18:04.850Z,26.17
2019-01-21T19:20:36.576Z,34.57
2019-01-21T19:23:07.576Z,27.20
2019-01-21T19:25:38.875Z,33.30
2019-01-21T19:28:10.180Z,33.00
2019-01-21T19:30:41.362Z,32.10
2019-01-21T19:33:12.498Z,28.53
2019-01-21T19:35:43.468Z,28.23
2019-01-21T19:38:14.862Z,27.17
2019-01-21T19:40:46.107Z,27.23
2019-01-21T19:43:18.304Z,30.03
2019-01-21T19:45:49.685Z,26.23
2019-01-21T19:48:21.019Z,29.30
2019-01-21T19:50:52.139Z,27.33
2019-01-21T19:53:23.467Z,33.37
2019-01-21T19:55:54.618Z,29.00
2019-01-21T19:58:25.967Z,32.83
2019-01-21T20:00:57.267Z,30.23
2019-01-21T20:03:28.339Z,35.77
2019-01-21T20:05:59.454Z,29.67
2019-01-21T20:08:30.667Z,31.90
2019-01-21T20:11:01.707Z,30.30
2019-01-21T20:13:33.003Z,31.10
2019-01-21T20:16:04.234Z,30.90
2019-01-21T20:18:35.338Z,32.17
2019-01-21T20:21:06.304Z,33.33
2019-01-21T20:23:37.642Z,26.67
2019-01-21T20:26:09.044Z,36.23
2019-01-21T20:28:40.368Z,28.37
2019-01-21T20:31:11.671Z,30.87
2019-01-21T20:33:43.008Z,31.83
2019-01-21T20:36:14.227Z,33.50
2019-01-21T20:38:45.482Z,30.03
2019-01-21T20:41:16.607Z,31.83
2019-01-21T20:43:47.879Z,33.80
2019-01-21T20:46:19.233Z,33.00
2019-01-21T20:48:50.652Z,33.07
2019-01-21T20:51:21.711Z,32.20
2019-01-21T20:53:52.970Z,35.70
2019-01-21T20:56:24.299Z,33.87
2019-01-21T20:58:55.870Z,31.73
2019-01-21T21:01:27.047Z,30.93
2019-01-21T21:03:58.188Z,35.13
2019-01-21T21:06:30.652Z,29.33
2019-01-21T21:09:02.496Z,37.33
2019-01-21T21:11:33.571Z,30.80
2019-01-21T21:14:04.902Z,37.73
2019-01-21T21:16:36.163Z,33.47
2019-01-21T21:19:07.161Z,34.40
2019-01-21T21:21:40.565Z,33.83
2019-01-21T21:24:11.843Z,36.03
2019-01-21T21:26:43.175Z,31.00
2019-01-21T21:29:14.502Z,35.07
2019-01-21T21:31:45.763Z,32.17
2019-01-21T21:34:17.356Z,34.63
2019-01-21T21:36:48.596Z,33.47
2019-01-21T21:39:20.360Z,36.87
2019-01-21T21:41:51.660Z,36.73
2019-01-21T21:44:22.990Z,33.87
2019-01-21T21:46:54.292Z,31.13
2019-01-21T21:49:25.684Z,31.60
2019-01-21T21:51:57.231Z,54.97
2019-01-21T21:54:28.991Z,39.77
2019-01-21T21:57:00.781Z,33.87
2019-01-21T21:59:32.395Z,39.30
2019-01-21T22:02:04.058Z,33.30
2019-01-21T22:04:35.383Z,34.57
2019-01-21T22:07:06.837Z,31.37
2019-01-21T22:09:38.151Z,35.73
2019-01-21T22:12:09.808Z,31.37
2019-01-21T22:14:40.812Z,31.03
2019-01-21T22:17:12.190Z,31.20
2019-01-21T22:19:44.075Z,33.03
2019-01-21T22:22:15.410Z,33.27
2019-01-21T22:24:46.951Z,28.33
2019-01-21T22:27:18.439Z,31.13
2019-01-21T22:29:49.687Z,30.57
2019-01-21T22:32:20.908Z,31.03
2019-01-21T22:34:52.234Z,32.07
2019-01-21T22:37:23.479Z,32.93
2019-01-21T22:39:54.466Z,30.27
2019-01-21T22:42:25.699Z,30.53
2019-01-21T22:44:57.251Z,28.90
2019-01-21T22:47:28.845Z,31.37
2019-01-21T22:50:01.089Z,36.27
2019-01-21T22:52:32.562Z,33.60
2019-01-21T22:55:04.134Z,36.13
2019-01-21T22:57:35.191Z,33.60
2019-01-21T23:00:18.747Z,34.87
2019-01-21T23:02:51.410Z,34.53
2019-01-21T23:05:22.760Z,32.70
2019-01-21T23:07:54.052Z,43.67
2019-01-21T23:10:25.449Z,34.90
2019-01-21T23:12:57.128Z,35.03
2019-01-21T23:15:28.451Z,34.07
2019-01-21T23:18:04.167Z,29.53
2019-01-21T23:20:32.811Z,30.90
2019-01-21T23:23:03.944Z,32.07
2019-01-21T23:25:35.416Z,34.53
2019-01-21T23:28:06.484Z,33.97
2019-01-21T23:30:38.208Z,33.60
2019-01-21T23:33:09.591Z,30.07
2019-01-21T23:35:41.198Z,35.93
2019-01-21T23:38:12.756Z,33.43
2019-01-21T23:40:44.151Z,36.27
2019-01-21T23:43:15.532Z,37.87
2019-01-21T23:45:46.855Z,32.10
2019-01-21T23:48:18.483Z,35.73
2019-01-21T23:50:49.815Z,39.43
2019-01-21T23:53:21.199Z,33.40
2019-01-21T23:55:52.523Z,36.43
2019-01-21T23:58:24.531Z,36.17
